PWSweather.com
Personal Weather Stations
Station Observations
KMAWOBUR2
West Side, Woburn, MA 01801

West SideWoburn, MA 01801

Lat: 42.458, Lon: -71.1955

Elevation: 160

Station Type: DAVIS/Vantage Pro2

http://pauland.net

High Low Average
Temperature 27.2°F-2.7°C 12.9°F-10.6°C 18.6°F-7.4°C
Dew Point 9.7°F-12.4°C -0.7°F-18.2°C 3.6°F-15.8°C
Winds 4.0 mph 6.4 kmh Calm Calm 1.0 mph E1.6 kmh E
Wind Gusts 9.0 mph14.5 kmh -- 4.0 mph6.4 kmh
Humidity 65% 39% 52%
Pressure 30.45 in1031.2 mb 30.34 in1027.4 mb -
Precipitation 0.00 in0.0 mm - -
Hour Temp Dew Point Humidity Winds Wind Gusts Pressure Precip Precip Rate Daily Precip Total
12:00 AM 20.5°F-6.4°C -0.5°F-18.1°C 39% 1.0 mph 1.6 kmh 3.0 mph4.8 kmh 30.44 in1030.8 mb 0.00 in0.0 mm 0.00 in0.0 mm 0.00 in0.0 mm
12:05 AM 20.3°F-6.5°C -0.7°F-18.2°C 39% 1.0 mph 1.6 kmh 2.0 mph3.2 kmh 30.44 in1030.8 mb 0.00 in0.0 mm 0.00 in0.0 mm 0.00 in0.0 mm
12:10 AM 20.2°F-6.6°C -0.7°F-18.2°C 39% 1.0 mph 1.6 kmh 3.0 mph4.8 kmh 30.44 in1030.8 mb 0.00 in0.0 mm 0.00 in0.0 mm 0.00 in0.0 mm
12:15 AM 20.0°F-6.7°C -0.4°F-18.0°C 40% 1.0 mph 1.6 kmh 4.0 mph6.4 kmh 30.44 in1030.8 mb 0.00 in0.0 mm 0.00 in0.0 mm 0.00 in0.0 mm
12:20 AM 19.9°F-6.7°C -0.5°F-18.1°C 40% Calm Calm 2.0 mph3.2 kmh 30.44 in1030.8 mb 0.00 in0.0 mm 0.00 in0.0 mm 0.00 in0.0 mm
12:25 AM 19.7°F-6.8°C -0.1°F-17.8°C 41% Calm Calm 1.0 mph1.6 kmh 30.44 in1030.8 mb 0.00 in0.0 mm 0.00 in0.0 mm 0.00 in0.0 mm
12:30 AM 19.5°F-6.9°C 0.2°F-17.7°C 42% 1.0 mph 1.6 kmh 4.0 mph6.4 kmh 30.44 in1030.8 mb 0.00 in0.0 mm 0.00 in0.0 mm 0.00 in0.0 mm
12:35 AM 19.4°F-7.0°C 0.1°F-17.7°C 42% 2.0 mph 3.2 kmh 4.0 mph6.4 kmh 30.44 in1030.8 mb 0.00 in0.0 mm 0.00 in0.0 mm 0.00 in0.0 mm
12:40 AM 19.4°F-7.0°C 0.1°F-17.7°C 42% 1.0 mph 1.6 kmh 3.0 mph4.8 kmh 30.44 in1030.8 mb 0.00 in0.0 mm 0.00 in0.0 mm 0.00 in0.0 mm
12:45 AM 19.2°F-7.1°C 0.4°F-17.6°C 43% 1.0 mph 1.6 kmh 5.0 mph8.0 kmh 30.44 in1030.8 mb 0.00 in0.0 mm 0.00 in0.0 mm 0.00 in0.0 mm
12:50 AM 18.9°F-7.3°C 0.6°F-17.4°C 44% Calm Calm 1.0 mph1.6 kmh 30.44 in1030.8 mb 0.00 in0.0 mm 0.00 in0.0 mm 0.00 in0.0 mm
12:55 AM 18.6°F-7.4°C 0.8°F-17.3°C 45% 1.0 mph 1.6 kmh 4.0 mph6.4 kmh 30.44 in1030.8 mb 0.00 in0.0 mm 0.00 in0.0 mm 0.00 in0.0 mm
01:00 AM 18.4°F-7.6°C 0.6°F-17.4°C 45% Calm Calm 2.0 mph3.2 kmh 30.44 in1030.8 mb 0.00 in0.0 mm 0.00 in0.0 mm 0.00 in0.0 mm
01:05 AM 18.3°F-7.6°C 0.6°F-17.4°C 45% 1.0 mph 1.6 kmh 2.0 mph3.2 kmh 30.44 in1030.8 mb 0.00 in0.0 mm 0.00 in0.0 mm 0.00 in0.0 mm
01:10 AM 18.3°F-7.6°C 0.6°F-17.4°C 45% 1.0 mph 1.6 kmh 2.0 mph3.2 kmh 30.44 in1030.8 mb 0.00 in0.0 mm 0.00 in0.0 mm 0.00 in0.0 mm
01:15 AM 18.3°F-7.6°C 0.6°F-17.4°C 45% Calm Calm 1.0 mph1.6 kmh 30.44 in1030.8 mb 0.00 in0.0 mm 0.00 in0.0 mm 0.00 in0.0 mm
01:20 AM 18.1°F-7.7°C 0.8°F-17.3°C 46% Calm Calm 1.0 mph1.6 kmh 30.44 in1030.8 mb 0.00 in0.0 mm 0.00 in0.0 mm 0.00 in0.0 mm
01:25 AM 17.8°F-7.9°C 1.5°F-16.9°C 48% Calm Calm 2.0 mph3.2 kmh 30.44 in1030.8 mb 0.00 in0.0 mm 0.00 in0.0 mm 0.00 in0.0 mm
01:30 AM 17.7°F-7.9°C 0.5°F-17.5°C 46% Calm Calm -- 30.44 in1030.8 mb 0.00 in0.0 mm 0.00 in0.0 mm 0.00 in0.0 mm
01:35 AM 17.5°F-8.1°C 1.2°F-17.1°C 48% Calm Calm -- 30.44 in1030.8 mb 0.00 in0.0 mm 0.00 in0.0 mm 0.00 in0.0 mm
01:40 AM 17.3°F-8.2°C 1.5°F-16.9°C 49% Calm Calm 2.0 mph3.2 kmh 30.44 in1030.8 mb 0.00 in0.0 mm 0.00 in0.0 mm 0.00 in0.0 mm
01:45 AM 17.2°F-8.2°C 1.4°F-17.0°C 49% Calm Calm 1.0 mph1.6 kmh 30.44 in1030.8 mb 0.00 in0.0 mm 0.00 in0.0 mm 0.00 in0.0 mm
01:50 AM 17.2°F-8.2°C 1.4°F-17.0°C 49% Calm Calm -- 30.44 in1030.8 mb 0.00 in0.0 mm 0.00 in0.0 mm 0.00 in0.0 mm
01:55 AM 17.0°F-8.3°C 0.7°F-17.4°C 48% Calm Calm 2.0 mph3.2 kmh 30.44 in1030.8 mb 0.00 in0.0 mm 0.00 in0.0 mm 0.00 in0.0 mm
02:00 AM 17.0°F-8.3°C 0.7°F-17.4°C 48% Calm Calm 1.0 mph1.6 kmh 30.45 in1031.2 mb 0.00 in0.0 mm 0.00 in0.0 mm 0.00 in0.0 mm
02:05 AM 16.9°F-8.4°C 0.6°F-17.4°C 48% Calm Calm 2.0 mph3.2 kmh 30.45 in1031.2 mb 0.00 in0.0 mm 0.00 in0.0 mm 0.00 in0.0 mm
02:10 AM 16.7°F-8.5°C 0.9°F-17.3°C 49% Calm Calm 4.0 mph6.4 kmh 30.45 in1031.2 mb 0.00 in0.0 mm 0.00 in0.0 mm 0.00 in0.0 mm
02:15 AM 16.7°F-8.5°C 0.9°F-17.3°C 49% 1.0 mph NNW1.6 kmh NNW 2.0 mph3.2 kmh 30.45 in1031.2 mb 0.00 in0.0 mm 0.00 in0.0 mm 0.00 in0.0 mm
02:20 AM 16.7°F-8.5°C 0.9°F-17.3°C 49% Calm Calm -- 30.45 in1031.2 mb 0.00 in0.0 mm 0.00 in0.0 mm 0.00 in0.0 mm
02:25 AM 16.7°F-8.5°C 0.9°F-17.3°C 49% Calm Calm 2.0 mph3.2 kmh 30.45 in1031.2 mb 0.00 in0.0 mm 0.00 in0.0 mm 0.00 in0.0 mm
02:30 AM 16.7°F-8.5°C 0.9°F-17.3°C 49% 1.0 mph NNW1.6 kmh NNW 4.0 mph6.4 kmh 30.45 in1031.2 mb 0.00 in0.0 mm 0.00 in0.0 mm 0.00 in0.0 mm
02:35 AM 16.9°F-8.4°C 1.1°F-17.2°C 49% 1.0 mph NNW1.6 kmh NNW 3.0 mph4.8 kmh 30.45 in1031.2 mb 0.00 in0.0 mm 0.00 in0.0 mm 0.00 in0.0 mm
02:40 AM 16.9°F-8.4°C 1.1°F-17.2°C 49% 1.0 mph NNW1.6 kmh NNW 5.0 mph8.0 kmh 30.45 in1031.2 mb 0.00 in0.0 mm 0.00 in0.0 mm 0.00 in0.0 mm
02:45 AM 17.0°F-8.3°C 0.7°F-17.4°C 48% 1.0 mph 1.6 kmh 4.0 mph6.4 kmh 30.45 in1031.2 mb 0.00 in0.0 mm 0.00 in0.0 mm 0.00 in0.0 mm
02:50 AM 17.2°F-8.2°C 0.5°F-17.5°C 47% 1.0 mph 1.6 kmh 3.0 mph4.8 kmh 30.45 in1031.2 mb 0.00 in0.0 mm 0.00 in0.0 mm 0.00 in0.0 mm
02:55 AM 17.3°F-8.2°C 0.1°F-17.7°C 46% 2.0 mph 3.2 kmh 4.0 mph6.4 kmh 30.45 in1031.2 mb 0.00 in0.0 mm 0.00 in0.0 mm 0.00 in0.0 mm
03:00 AM 17.3°F-8.2°C 0.1°F-17.7°C 46% 2.0 mph 3.2 kmh 3.0 mph4.8 kmh 30.43 in1030.5 mb 0.00 in0.0 mm 0.00 in0.0 mm 0.00 in0.0 mm
03:05 AM 17.3°F-8.2°C 0.1°F-17.7°C 46% 2.0 mph 3.2 kmh 4.0 mph6.4 kmh 30.43 in1030.5 mb 0.00 in0.0 mm 0.00 in0.0 mm 0.00 in0.0 mm
03:10 AM 17.3°F-8.2°C 0.1°F-17.7°C 46% 1.0 mph 1.6 kmh 2.0 mph3.2 kmh 30.43 in1030.5 mb 0.00 in0.0 mm 0.00 in0.0 mm 0.00 in0.0 mm
03:15 AM 17.3°F-8.2°C 0.1°F-17.7°C 46% 1.0 mph 1.6 kmh 3.0 mph4.8 kmh 30.43 in1030.5 mb 0.00 in0.0 mm 0.00 in0.0 mm 0.00 in0.0 mm
03:20 AM 17.2°F-8.2°C 0.0°F-17.8°C 46% 1.0 mph 1.6 kmh 3.0 mph4.8 kmh 30.43 in1030.5 mb 0.00 in0.0 mm 0.00 in0.0 mm 0.00 in0.0 mm
03:25 AM 17.2°F-8.2°C 0.0°F-17.8°C 46% 1.0 mph 1.6 kmh 4.0 mph6.4 kmh 30.43 in1030.5 mb 0.00 in0.0 mm 0.00 in0.0 mm 0.00 in0.0 mm
03:30 AM 17.2°F-8.2°C 0.0°F-17.8°C 46% 1.0 mph 1.6 kmh 3.0 mph4.8 kmh 30.44 in1030.8 mb 0.00 in0.0 mm 0.00 in0.0 mm 0.00 in0.0 mm
03:35 AM 17.2°F-8.2°C 0.0°F-17.8°C 46% 1.0 mph 1.6 kmh 4.0 mph6.4 kmh 30.44 in1030.8 mb 0.00 in0.0 mm 0.00 in0.0 mm 0.00 in0.0 mm
03:40 AM 17.2°F-8.2°C 0.0°F-17.8°C 46% 1.0 mph 1.6 kmh 4.0 mph6.4 kmh 30.44 in1030.8 mb 0.00 in0.0 mm 0.00 in0.0 mm 0.00 in0.0 mm
03:45 AM 17.2°F-8.2°C 0.0°F-17.8°C 46% 2.0 mph 3.2 kmh 4.0 mph6.4 kmh 30.43 in1030.5 mb 0.00 in0.0 mm 0.00 in0.0 mm 0.00 in0.0 mm
03:50 AM 17.2°F-8.2°C 0.0°F-17.8°C 46% Calm Calm 4.0 mph6.4 kmh 30.43 in1030.5 mb 0.00 in0.0 mm 0.00 in0.0 mm 0.00 in0.0 mm
03:55 AM 17.0°F-8.3°C 0.3°F-17.6°C 47% Calm Calm 1.0 mph1.6 kmh 30.43 in1030.5 mb 0.00 in0.0 mm 0.00 in0.0 mm 0.00 in0.0 mm
04:00 AM 16.9°F-8.4°C 0.2°F-17.7°C 47% Calm Calm 1.0 mph1.6 kmh 30.43 in1030.5 mb 0.00 in0.0 mm 0.00 in0.0 mm 0.00 in0.0 mm
04:05 AM 16.7°F-8.5°C 0.5°F-17.5°C 48% Calm Calm -- 30.43 in1030.5 mb 0.00 in0.0 mm 0.00 in0.0 mm 0.00 in0.0 mm
04:10 AM 16.5°F-8.6°C 0.7°F-17.4°C 49% 1.0 mph 1.6 kmh 5.0 mph8.0 kmh 30.43 in1030.5 mb 0.00 in0.0 mm 0.00 in0.0 mm 0.00 in0.0 mm
04:15 AM 16.5°F-8.6°C 0.3°F-17.6°C 48% 2.0 mph 3.2 kmh 5.0 mph8.0 kmh 30.44 in1030.8 mb 0.00 in0.0 mm 0.00 in0.0 mm 0.00 in0.0 mm
04:20 AM 16.7°F-8.5°C 0.0°F-17.8°C 47% 2.0 mph 3.2 kmh 6.0 mph9.7 kmh 30.44 in1030.8 mb 0.00 in0.0 mm 0.00 in0.0 mm 0.00 in0.0 mm
04:25 AM 16.7°F-8.5°C 0.5°F-17.5°C 48% 1.0 mph 1.6 kmh 3.0 mph4.8 kmh 30.44 in1030.8 mb 0.00 in0.0 mm 0.00 in0.0 mm 0.00 in0.0 mm
04:30 AM 16.9°F-8.4°C 0.6°F-17.4°C 48% 2.0 mph 3.2 kmh 5.0 mph8.0 kmh 30.43 in1030.5 mb 0.00 in0.0 mm 0.00 in0.0 mm 0.00 in0.0 mm
04:35 AM 16.9°F-8.4°C 0.2°F-17.7°C 47% 2.0 mph NNW3.2 kmh NNW 6.0 mph9.7 kmh 30.43 in1030.5 mb 0.00 in0.0 mm 0.00 in0.0 mm 0.00 in0.0 mm
04:40 AM 16.9°F-8.4°C 0.2°F-17.7°C 47% 1.0 mph 1.6 kmh 2.0 mph3.2 kmh 30.43 in1030.5 mb 0.00 in0.0 mm 0.00 in0.0 mm 0.00 in0.0 mm
04:45 AM 16.9°F-8.4°C 0.6°F-17.4°C 48% 3.0 mph NNW4.8 kmh NNW 7.0 mph11.3 kmh 30.43 in1030.5 mb 0.00 in0.0 mm 0.00 in0.0 mm 0.00 in0.0 mm
04:50 AM 16.9°F-8.4°C 0.6°F-17.4°C 48% 2.0 mph NNW3.2 kmh NNW 8.0 mph12.9 kmh 30.43 in1030.5 mb 0.00 in0.0 mm 0.00 in0.0 mm 0.00 in0.0 mm
04:55 AM 16.9°F-8.4°C 0.6°F-17.4°C 48% 2.0 mph 3.2 kmh 4.0 mph6.4 kmh 30.43 in1030.5 mb 0.00 in0.0 mm 0.00 in0.0 mm 0.00 in0.0 mm
05:00 AM 16.9°F-8.4°C 0.6°F-17.4°C 48% 2.0 mph NNW3.2 kmh NNW 5.0 mph8.0 kmh 30.43 in1030.5 mb 0.00 in0.0 mm 0.00 in0.0 mm 0.00 in0.0 mm
05:05 AM 16.7°F-8.5°C 0.5°F-17.5°C 48% 2.0 mph NW3.2 kmh NW 4.0 mph6.4 kmh 30.43 in1030.5 mb 0.00 in0.0 mm 0.00 in0.0 mm 0.00 in0.0 mm
05:10 AM 16.7°F-8.5°C 0.9°F-17.3°C 49% 1.0 mph NNW1.6 kmh NNW 3.0 mph4.8 kmh 30.43 in1030.5 mb 0.00 in0.0 mm 0.00 in0.0 mm 0.00 in0.0 mm
05:15 AM 16.7°F-8.5°C 0.9°F-17.3°C 49% 1.0 mph 1.6 kmh 4.0 mph6.4 kmh 30.43 in1030.5 mb 0.00 in0.0 mm 0.00 in0.0 mm 0.00 in0.0 mm
05:20 AM 16.5°F-8.6°C 0.7°F-17.4°C 49% 1.0 mph 1.6 kmh 4.0 mph6.4 kmh 30.43 in1030.5 mb 0.00 in0.0 mm 0.00 in0.0 mm 0.00 in0.0 mm
05:25 AM 16.5°F-8.6°C 0.7°F-17.4°C 49% 2.0 mph 3.2 kmh 6.0 mph9.7 kmh 30.43 in1030.5 mb 0.00 in0.0 mm 0.00 in0.0 mm 0.00 in0.0 mm
05:30 AM 16.5°F-8.6°C 0.7°F-17.4°C 49% 2.0 mph NNW3.2 kmh NNW 4.0 mph6.4 kmh 30.43 in1030.5 mb 0.00 in0.0 mm 0.00 in0.0 mm 0.00 in0.0 mm
05:35 AM 16.5°F-8.6°C 1.1°F-17.2°C 50% 1.0 mph NNW1.6 kmh NNW 2.0 mph3.2 kmh 30.43 in1030.5 mb 0.00 in0.0 mm 0.00 in0.0 mm 0.00 in0.0 mm
05:40 AM 16.4°F-8.7°C 1.1°F-17.2°C 50% 2.0 mph NNW3.2 kmh NNW 5.0 mph8.0 kmh 30.43 in1030.5 mb 0.00 in0.0 mm 0.00 in0.0 mm 0.00 in0.0 mm
05:45 AM 16.4°F-8.7°C 1.1°F-17.2°C 50% 2.0 mph 3.2 kmh 7.0 mph11.3 kmh 30.43 in1030.5 mb 0.00 in0.0 mm 0.00 in0.0 mm 0.00 in0.0 mm
05:50 AM 16.2°F-8.8°C 0.9°F-17.3°C 50% 1.0 mph 1.6 kmh 3.0 mph4.8 kmh 30.43 in1030.5 mb 0.00 in0.0 mm 0.00 in0.0 mm 0.00 in0.0 mm
05:55 AM 16.2°F-8.8°C 0.9°F-17.3°C 50% 1.0 mph 1.6 kmh 5.0 mph8.0 kmh 30.43 in1030.5 mb 0.00 in0.0 mm 0.00 in0.0 mm 0.00 in0.0 mm
06:00 AM 16.1°F-8.8°C 0.8°F-17.3°C 50% 1.0 mph NNW1.6 kmh NNW 4.0 mph6.4 kmh 30.43 in1030.5 mb 0.00 in0.0 mm 0.00 in0.0 mm 0.00 in0.0 mm
06:05 AM 16.1°F-8.8°C 1.2°F-17.1°C 51% 2.0 mph NNW3.2 kmh NNW 3.0 mph4.8 kmh 30.43 in1030.5 mb 0.00 in0.0 mm 0.00 in0.0 mm 0.00 in0.0 mm
06:10 AM 16.1°F-8.8°C 0.8°F-17.3°C 50% 1.0 mph NNW1.6 kmh NNW 3.0 mph4.8 kmh 30.43 in1030.5 mb 0.00 in0.0 mm 0.00 in0.0 mm 0.00 in0.0 mm
06:15 AM 16.1°F-8.8°C 1.2°F-17.1°C 51% 2.0 mph NNW3.2 kmh NNW 6.0 mph9.7 kmh 30.44 in1030.8 mb 0.00 in0.0 mm 0.00 in0.0 mm 0.00 in0.0 mm
06:20 AM 16.1°F-8.8°C 1.2°F-17.1°C 51% 1.0 mph NNW1.6 kmh NNW 5.0 mph8.0 kmh 30.44 in1030.8 mb 0.00 in0.0 mm 0.00 in0.0 mm 0.00 in0.0 mm
06:25 AM 16.1°F-8.8°C 1.2°F-17.1°C 51% 2.0 mph NNW3.2 kmh NNW 7.0 mph11.3 kmh 30.44 in1030.8 mb 0.00 in0.0 mm 0.00 in0.0 mm 0.00 in0.0 mm
06:30 AM 16.1°F-8.8°C 1.2°F-17.1°C 51% Calm Calm 2.0 mph3.2 kmh 30.43 in1030.5 mb 0.00 in0.0 mm 0.00 in0.0 mm 0.00 in0.0 mm
06:35 AM 15.9°F-8.9°C 1.0°F-17.2°C 51% Calm Calm 3.0 mph4.8 kmh 30.43 in1030.5 mb 0.00 in0.0 mm 0.00 in0.0 mm 0.00 in0.0 mm
06:40 AM 15.9°F-8.9°C 1.4°F-17.0°C 52% Calm Calm 2.0 mph3.2 kmh 30.43 in1030.5 mb 0.00 in0.0 mm 0.00 in0.0 mm 0.00 in0.0 mm
06:45 AM 15.9°F-8.9°C 1.4°F-17.0°C 52% Calm Calm 2.0 mph3.2 kmh 30.44 in1030.8 mb 0.00 in0.0 mm 0.00 in0.0 mm 0.00 in0.0 mm
06:50 AM 15.7°F-9.1°C 1.6°F-16.9°C 53% 1.0 mph 1.6 kmh 6.0 mph9.7 kmh 30.44 in1030.8 mb 0.00 in0.0 mm 0.00 in0.0 mm 0.00 in0.0 mm
06:55 AM 15.7°F-9.1°C 1.2°F-17.1°C 52% 1.0 mph 1.6 kmh 4.0 mph6.4 kmh 30.44 in1030.8 mb 0.00 in0.0 mm 0.00 in0.0 mm 0.00 in0.0 mm
07:00 AM 15.7°F-9.1°C 1.2°F-17.1°C 52% 2.0 mph 3.2 kmh 4.0 mph6.4 kmh 30.43 in1030.5 mb 0.00 in0.0 mm 0.00 in0.0 mm 0.00 in0.0 mm
07:05 AM 15.7°F-9.1°C 1.2°F-17.1°C 52% 3.0 mph NE4.8 kmh NE 5.0 mph8.0 kmh 30.43 in1030.5 mb 0.00 in0.0 mm 0.00 in0.0 mm 0.00 in0.0 mm
07:10 AM 15.7°F-9.1°C 1.2°F-17.1°C 52% 3.0 mph NNE4.8 kmh NNE 7.0 mph11.3 kmh 30.43 in1030.5 mb 0.00 in0.0 mm 0.00 in0.0 mm 0.00 in0.0 mm
07:15 AM 15.7°F-9.1°C 1.6°F-16.9°C 53% 1.0 mph NNE1.6 kmh NNE 4.0 mph6.4 kmh 30.43 in1030.5 mb 0.00 in0.0 mm 0.00 in0.0 mm 0.00 in0.0 mm
07:20 AM 15.6°F-9.1°C 1.6°F-16.9°C 53% 2.0 mph NNE3.2 kmh NNE 4.0 mph6.4 kmh 30.43 in1030.5 mb 0.00 in0.0 mm 0.00 in0.0 mm 0.00 in0.0 mm
07:25 AM 15.6°F-9.1°C 1.6°F-16.9°C 53% 2.0 mph NNE3.2 kmh NNE 6.0 mph9.7 kmh 30.43 in1030.5 mb 0.00 in0.0 mm 0.00 in0.0 mm 0.00 in0.0 mm
07:30 AM 15.6°F-9.1°C 1.6°F-16.9°C 53% 3.0 mph 4.8 kmh 7.0 mph11.3 kmh 30.42 in1030.1 mb 0.00 in0.0 mm 0.00 in0.0 mm 0.00 in0.0 mm
07:35 AM 15.6°F-9.1°C 1.6°F-16.9°C 53% 2.0 mph 3.2 kmh 5.0 mph8.0 kmh 30.42 in1030.1 mb 0.00 in0.0 mm 0.00 in0.0 mm 0.00 in0.0 mm
07:40 AM 15.4°F-9.2°C 1.4°F-17.0°C 53% 2.0 mph 3.2 kmh 6.0 mph9.7 kmh 30.42 in1030.1 mb 0.00 in0.0 mm 0.00 in0.0 mm 0.00 in0.0 mm
07:45 AM 15.4°F-9.2°C 1.8°F-16.8°C 54% 1.0 mph 1.6 kmh 5.0 mph8.0 kmh 30.42 in1030.1 mb 0.00 in0.0 mm 0.00 in0.0 mm 0.00 in0.0 mm
07:50 AM 15.4°F-9.2°C 1.8°F-16.8°C 54% 1.0 mph 1.6 kmh 3.0 mph4.8 kmh 30.42 in1030.1 mb 0.00 in0.0 mm 0.00 in0.0 mm 0.00 in0.0 mm
07:55 AM 15.2°F-9.3°C 1.6°F-16.9°C 54% 2.0 mph 3.2 kmh 4.0 mph6.4 kmh 30.42 in1030.1 mb 0.00 in0.0 mm 0.00 in0.0 mm 0.00 in0.0 mm
08:00 AM 15.1°F-9.4°C 1.9°F-16.7°C 55% 1.0 mph 1.6 kmh 3.0 mph4.8 kmh 30.42 in1030.1 mb 0.00 in0.0 mm 0.00 in0.0 mm 0.00 in0.0 mm
08:05 AM 15.1°F-9.4°C 1.9°F-16.7°C 55% 2.0 mph 3.2 kmh 7.0 mph11.3 kmh 30.42 in1030.1 mb 0.00 in0.0 mm 0.00 in0.0 mm 0.00 in0.0 mm
08:10 AM 14.9°F-9.5°C 1.7°F-16.8°C 55% 2.0 mph NNE3.2 kmh NNE 5.0 mph8.0 kmh 30.42 in1030.1 mb 0.00 in0.0 mm 0.00 in0.0 mm 0.00 in0.0 mm
08:15 AM 14.8°F-9.6°C 1.2°F-17.1°C 54% 3.0 mph 4.8 kmh 6.0 mph9.7 kmh 30.43 in1030.5 mb 0.00 in0.0 mm 0.00 in0.0 mm 0.00 in0.0 mm
08:20 AM 14.6°F-9.7°C 1.0°F-17.2°C 54% 3.0 mph 4.8 kmh 5.0 mph8.0 kmh 30.43 in1030.5 mb 0.00 in0.0 mm 0.00 in0.0 mm 0.00 in0.0 mm
08:25 AM 14.6°F-9.7°C 1.4°F-17.0°C 55% 2.0 mph 3.2 kmh 4.0 mph6.4 kmh 30.43 in1030.5 mb 0.00 in0.0 mm 0.00 in0.0 mm 0.00 in0.0 mm
08:30 AM 14.4°F-9.8°C 1.2°F-17.1°C 55% 2.0 mph NNW3.2 kmh NNW 4.0 mph6.4 kmh 30.42 in1030.1 mb 0.00 in0.0 mm 0.00 in0.0 mm 0.00 in0.0 mm
08:35 AM 14.4°F-9.8°C 1.2°F-17.1°C 55% 2.0 mph NNW3.2 kmh NNW 9.0 mph14.5 kmh 30.42 in1030.1 mb 0.00 in0.0 mm 0.00 in0.0 mm 0.00 in0.0 mm
08:40 AM 14.3°F-9.8°C 1.1°F-17.2°C 55% 3.0 mph 4.8 kmh 9.0 mph14.5 kmh 30.42 in1030.1 mb 0.00 in0.0 mm 0.00 in0.0 mm 0.00 in0.0 mm
08:45 AM 14.3°F-9.8°C 1.1°F-17.2°C 55% 2.0 mph NNW3.2 kmh NNW 7.0 mph11.3 kmh 30.42 in1030.1 mb 0.00 in0.0 mm 0.00 in0.0 mm 0.00 in0.0 mm
08:50 AM 14.3°F-9.8°C 1.1°F-17.2°C 55% 1.0 mph NW1.6 kmh NW 3.0 mph4.8 kmh 30.42 in1030.1 mb 0.00 in0.0 mm 0.00 in0.0 mm 0.00 in0.0 mm
08:55 AM 14.3°F-9.8°C 1.1°F-17.2°C 55% 2.0 mph NW3.2 kmh NW 6.0 mph9.7 kmh 30.42 in1030.1 mb 0.00 in0.0 mm 0.00 in0.0 mm 0.00 in0.0 mm
09:00 AM 14.1°F-9.9°C 0.9°F-17.3°C 55% 1.0 mph NNE1.6 kmh NNE 4.0 mph6.4 kmh 30.42 in1030.1 mb 0.00 in0.0 mm 0.00 in0.0 mm 0.00 in0.0 mm
09:05 AM 14.1°F-9.9°C 1.3°F-17.1°C 56% 1.0 mph NNE1.6 kmh NNE 3.0 mph4.8 kmh 30.42 in1030.1 mb 0.00 in0.0 mm 0.00 in0.0 mm 0.00 in0.0 mm
09:10 AM 14.1°F-9.9°C 1.3°F-17.1°C 56% 2.0 mph NNE3.2 kmh NNE 5.0 mph8.0 kmh 30.42 in1030.1 mb 0.00 in0.0 mm 0.00 in0.0 mm 0.00 in0.0 mm
09:15 AM 14.1°F-9.9°C 1.3°F-17.1°C 56% Calm Calm 3.0 mph4.8 kmh 30.42 in1030.1 mb 0.00 in0.0 mm 0.00 in0.0 mm 0.00 in0.0 mm
09:20 AM 14.0°F-10.0°C 1.6°F-16.9°C 57% Calm Calm 1.0 mph1.6 kmh 30.42 in1030.1 mb 0.00 in0.0 mm 0.00 in0.0 mm 0.00 in0.0 mm
09:25 AM 14.0°F-10.0°C 1.6°F-16.9°C 57% Calm Calm 3.0 mph4.8 kmh 30.42 in1030.1 mb 0.00 in0.0 mm 0.00 in0.0 mm 0.00 in0.0 mm
09:30 AM 13.8°F-10.1°C 1.4°F-17.0°C 57% 1.0 mph NNE1.6 kmh NNE 4.0 mph6.4 kmh 30.43 in1030.5 mb 0.00 in0.0 mm 0.00 in0.0 mm 0.00 in0.0 mm
09:35 AM 13.8°F-10.1°C 1.4°F-17.0°C 57% Calm Calm 2.0 mph3.2 kmh 30.43 in1030.5 mb 0.00 in0.0 mm 0.00 in0.0 mm 0.00 in0.0 mm
09:40 AM 13.6°F-10.2°C 1.2°F-17.1°C 57% Calm Calm 2.0 mph3.2 kmh 30.43 in1030.5 mb 0.00 in0.0 mm 0.00 in0.0 mm 0.00 in0.0 mm
09:45 AM 13.6°F-10.2°C 1.6°F-16.9°C 58% Calm Calm 3.0 mph4.8 kmh 30.43 in1030.5 mb 0.00 in0.0 mm 0.00 in0.0 mm 0.00 in0.0 mm
09:50 AM 13.6°F-10.2°C 1.6°F-16.9°C 58% 1.0 mph NNE1.6 kmh NNE 4.0 mph6.4 kmh 30.43 in1030.5 mb 0.00 in0.0 mm 0.00 in0.0 mm 0.00 in0.0 mm
09:55 AM 13.6°F-10.2°C 1.6°F-16.9°C 58% 1.0 mph NNE1.6 kmh NNE 3.0 mph4.8 kmh 30.43 in1030.5 mb 0.00 in0.0 mm 0.00 in0.0 mm 0.00 in0.0 mm
10:00 AM 13.8°F-10.1°C 1.8°F-16.8°C 58% 1.0 mph NNE1.6 kmh NNE 4.0 mph6.4 kmh 30.43 in1030.5 mb 0.00 in0.0 mm 0.00 in0.0 mm 0.00 in0.0 mm
10:05 AM 13.8°F-10.1°C 1.8°F-16.8°C 58% 2.0 mph NNE3.2 kmh NNE 6.0 mph9.7 kmh 30.43 in1030.5 mb 0.00 in0.0 mm 0.00 in0.0 mm 0.00 in0.0 mm
10:10 AM 13.8°F-10.1°C 1.8°F-16.8°C 58% 1.0 mph 1.6 kmh 3.0 mph4.8 kmh 30.43 in1030.5 mb 0.00 in0.0 mm 0.00 in0.0 mm 0.00 in0.0 mm
10:15 AM 13.8°F-10.1°C 1.8°F-16.8°C 58% 1.0 mph 1.6 kmh 3.0 mph4.8 kmh 30.43 in1030.5 mb 0.00 in0.0 mm 0.00 in0.0 mm 0.00 in0.0 mm
10:20 AM 13.8°F-10.1°C 1.8°F-16.8°C 58% Calm Calm 3.0 mph4.8 kmh 30.43 in1030.5 mb 0.00 in0.0 mm 0.00 in0.0 mm 0.00 in0.0 mm
10:25 AM 13.8°F-10.1°C 1.8°F-16.8°C 58% Calm Calm 3.0 mph4.8 kmh 30.43 in1030.5 mb 0.00 in0.0 mm 0.00 in0.0 mm 0.00 in0.0 mm
10:30 AM 13.8°F-10.1°C 2.2°F-16.6°C 59% 1.0 mph 1.6 kmh 2.0 mph3.2 kmh 30.44 in1030.8 mb 0.00 in0.0 mm 0.00 in0.0 mm 0.00 in0.0 mm
10:35 AM 13.8°F-10.1°C 2.2°F-16.6°C 59% 1.0 mph 1.6 kmh 5.0 mph8.0 kmh 30.44 in1030.8 mb 0.00 in0.0 mm 0.00 in0.0 mm 0.00 in0.0 mm
10:40 AM 13.8°F-10.1°C 2.2°F-16.6°C 59% 1.0 mph 1.6 kmh 4.0 mph6.4 kmh 30.44 in1030.8 mb 0.00 in0.0 mm 0.00 in0.0 mm 0.00 in0.0 mm
10:45 AM 13.8°F-10.1°C 1.8°F-16.8°C 58% 2.0 mph 3.2 kmh 5.0 mph8.0 kmh 30.44 in1030.8 mb 0.00 in0.0 mm 0.00 in0.0 mm 0.00 in0.0 mm
10:50 AM 13.6°F-10.2°C 2.0°F-16.7°C 59% 1.0 mph 1.6 kmh 5.0 mph8.0 kmh 30.44 in1030.8 mb 0.00 in0.0 mm 0.00 in0.0 mm 0.00 in0.0 mm
10:55 AM 13.6°F-10.2°C 2.0°F-16.7°C 59% Calm Calm 3.0 mph4.8 kmh 30.44 in1030.8 mb 0.00 in0.0 mm 0.00 in0.0 mm 0.00 in0.0 mm
11:00 AM 13.6°F-10.2°C 2.0°F-16.7°C 59% 1.0 mph 1.6 kmh 4.0 mph6.4 kmh 30.44 in1030.8 mb 0.00 in0.0 mm 0.00 in0.0 mm 0.00 in0.0 mm
11:05 AM 13.6°F-10.2°C 2.3°F-16.5°C 60% Calm Calm 4.0 mph6.4 kmh 30.44 in1030.8 mb 0.00 in0.0 mm 0.00 in0.0 mm 0.00 in0.0 mm
11:10 AM 13.6°F-10.2°C 2.0°F-16.7°C 59% 1.0 mph 1.6 kmh 3.0 mph4.8 kmh 30.44 in1030.8 mb 0.00 in0.0 mm 0.00 in0.0 mm 0.00 in0.0 mm
11:15 AM 13.6°F-10.2°C 2.0°F-16.7°C 59% Calm Calm 2.0 mph3.2 kmh 30.44 in1030.8 mb 0.00 in0.0 mm 0.00 in0.0 mm 0.00 in0.0 mm
11:20 AM 13.6°F-10.2°C 2.0°F-16.7°C 59% 1.0 mph 1.6 kmh 4.0 mph6.4 kmh 30.44 in1030.8 mb 0.00 in0.0 mm 0.00 in0.0 mm 0.00 in0.0 mm
11:25 AM 13.6°F-10.2°C 2.3°F-16.5°C 60% Calm Calm 2.0 mph3.2 kmh 30.44 in1030.8 mb 0.00 in0.0 mm 0.00 in0.0 mm 0.00 in0.0 mm
11:30 AM 13.6°F-10.2°C 2.0°F-16.7°C 59% 2.0 mph 3.2 kmh 4.0 mph6.4 kmh 30.44 in1030.8 mb 0.00 in0.0 mm 0.00 in0.0 mm 0.00 in0.0 mm
11:35 AM 13.5°F-10.3°C 1.9°F-16.7°C 59% Calm Calm 2.0 mph3.2 kmh 30.44 in1030.8 mb 0.00 in0.0 mm 0.00 in0.0 mm 0.00 in0.0 mm
11:40 AM 13.5°F-10.3°C 2.2°F-16.6°C 60% Calm Calm 2.0 mph3.2 kmh 30.44 in1030.8 mb 0.00 in0.0 mm 0.00 in0.0 mm 0.00 in0.0 mm
11:45 AM 13.5°F-10.3°C 2.2°F-16.6°C 60% 2.0 mph 3.2 kmh 3.0 mph4.8 kmh 30.43 in1030.5 mb 0.00 in0.0 mm 0.00 in0.0 mm 0.00 in0.0 mm
11:50 AM 13.5°F-10.3°C 1.5°F-16.9°C 58% 3.0 mph 4.8 kmh 6.0 mph9.7 kmh 30.43 in1030.5 mb 0.00 in0.0 mm 0.00 in0.0 mm 0.00 in0.0 mm
11:55 AM 13.3°F-10.4°C 1.7°F-16.8°C 59% 2.0 mph 3.2 kmh 6.0 mph9.7 kmh 30.43 in1030.5 mb 0.00 in0.0 mm 0.00 in0.0 mm 0.00 in0.0 mm
12:00 PM 13.3°F-10.4°C 1.7°F-16.8°C 59% 1.0 mph 1.6 kmh 4.0 mph6.4 kmh 30.43 in1030.5 mb 0.00 in0.0 mm 0.00 in0.0 mm 0.00 in0.0 mm
12:05 PM 13.3°F-10.4°C 1.3°F-17.1°C 58% 2.0 mph NNE3.2 kmh NNE 6.0 mph9.7 kmh 30.43 in1030.5 mb 0.00 in0.0 mm 0.00 in0.0 mm 0.00 in0.0 mm
12:10 PM 13.1°F-10.5°C 1.5°F-16.9°C 59% 1.0 mph NNE1.6 kmh NNE 4.0 mph6.4 kmh 30.43 in1030.5 mb 0.00 in0.0 mm 0.00 in0.0 mm 0.00 in0.0 mm
12:15 PM 13.1°F-10.5°C 1.5°F-16.9°C 59% 1.0 mph NNE1.6 kmh NNE 2.0 mph3.2 kmh 30.43 in1030.5 mb 0.00 in0.0 mm 0.00 in0.0 mm 0.00 in0.0 mm
12:20 PM 13.1°F-10.5°C 1.5°F-16.9°C 59% 2.0 mph NNE3.2 kmh NNE 4.0 mph6.4 kmh 30.43 in1030.5 mb 0.00 in0.0 mm 0.00 in0.0 mm 0.00 in0.0 mm
12:25 PM 12.9°F-10.6°C 1.3°F-17.1°C 59% 1.0 mph NNE1.6 kmh NNE 3.0 mph4.8 kmh 30.43 in1030.5 mb 0.00 in0.0 mm 0.00 in0.0 mm 0.00 in0.0 mm
12:30 PM 12.9°F-10.6°C 1.7°F-16.8°C 60% 1.0 mph NNE1.6 kmh NNE 3.0 mph4.8 kmh 30.43 in1030.5 mb 0.00 in0.0 mm 0.00 in0.0 mm 0.00 in0.0 mm
12:35 PM 12.9°F-10.6°C 1.7°F-16.8°C 60% 2.0 mph NNE3.2 kmh NNE 5.0 mph8.0 kmh 30.43 in1030.5 mb 0.00 in0.0 mm 0.00 in0.0 mm 0.00 in0.0 mm
12:40 PM 12.9°F-10.6°C 1.7°F-16.8°C 60% 1.0 mph NNE1.6 kmh NNE 3.0 mph4.8 kmh 30.43 in1030.5 mb 0.00 in0.0 mm 0.00 in0.0 mm 0.00 in0.0 mm
12:45 PM 12.9°F-10.6°C 1.7°F-16.8°C 60% 1.0 mph NNE1.6 kmh NNE 3.0 mph4.8 kmh 30.43 in1030.5 mb 0.00 in0.0 mm 0.00 in0.0 mm 0.00 in0.0 mm
12:50 PM 13.1°F-10.5°C 1.5°F-16.9°C 59% 1.0 mph NNE1.6 kmh NNE 5.0 mph8.0 kmh 30.43 in1030.5 mb 0.00 in0.0 mm 0.00 in0.0 mm 0.00 in0.0 mm
12:55 PM 13.1°F-10.5°C 1.5°F-16.9°C 59% 2.0 mph NNE3.2 kmh NNE 5.0 mph8.0 kmh 30.43 in1030.5 mb 0.00 in0.0 mm 0.00 in0.0 mm 0.00 in0.0 mm
01:00 PM 13.3°F-10.4°C 1.7°F-16.8°C 59% 2.0 mph NNE3.2 kmh NNE 4.0 mph6.4 kmh 30.43 in1030.5 mb 0.00 in0.0 mm 0.00 in0.0 mm 0.00 in0.0 mm
01:05 PM 13.5°F-10.3°C 1.9°F-16.7°C 59% 2.0 mph NNE3.2 kmh NNE 5.0 mph8.0 kmh 30.43 in1030.5 mb 0.00 in0.0 mm 0.00 in0.0 mm 0.00 in0.0 mm
01:10 PM 13.5°F-10.3°C 1.9°F-16.7°C 59% 2.0 mph NNE3.2 kmh NNE 4.0 mph6.4 kmh 30.43 in1030.5 mb 0.00 in0.0 mm 0.00 in0.0 mm 0.00 in0.0 mm
01:15 PM 13.6°F-10.2°C 2.0°F-16.7°C 59% 2.0 mph NNE3.2 kmh NNE 5.0 mph8.0 kmh 30.43 in1030.5 mb 0.00 in0.0 mm 0.00 in0.0 mm 0.00 in0.0 mm
01:20 PM 13.8°F-10.1°C 1.8°F-16.8°C 58% 1.0 mph NNE1.6 kmh NNE 4.0 mph6.4 kmh 30.43 in1030.5 mb 0.00 in0.0 mm 0.00 in0.0 mm 0.00 in0.0 mm
01:25 PM 14.0°F-10.0°C 2.0°F-16.7°C 58% 3.0 mph 4.8 kmh 6.0 mph9.7 kmh 30.43 in1030.5 mb 0.00 in0.0 mm 0.00 in0.0 mm 0.00 in0.0 mm
01:30 PM 14.0°F-10.0°C 1.6°F-16.9°C 57% 4.0 mph 6.4 kmh 9.0 mph14.5 kmh 30.44 in1030.8 mb 0.00 in0.0 mm 0.00 in0.0 mm 0.00 in0.0 mm
01:35 PM 14.0°F-10.0°C 1.6°F-16.9°C 57% 3.0 mph 4.8 kmh 6.0 mph9.7 kmh 30.44 in1030.8 mb 0.00 in0.0 mm 0.00 in0.0 mm 0.00 in0.0 mm
01:40 PM 14.0°F-10.0°C 1.6°F-16.9°C 57% 3.0 mph 4.8 kmh 6.0 mph9.7 kmh 30.44 in1030.8 mb 0.00 in0.0 mm 0.00 in0.0 mm 0.00 in0.0 mm
01:45 PM 14.1°F-9.9°C 1.7°F-16.8°C 57% 2.0 mph 3.2 kmh 4.0 mph6.4 kmh 30.44 in1030.8 mb 0.00 in0.0 mm 0.00 in0.0 mm 0.00 in0.0 mm
01:50 PM 14.3°F-9.8°C 1.9°F-16.7°C 57% 2.0 mph 3.2 kmh 7.0 mph11.3 kmh 30.44 in1030.8 mb 0.00 in0.0 mm 0.00 in0.0 mm 0.00 in0.0 mm
01:55 PM 14.4°F-9.8°C 1.6°F-16.9°C 56% 3.0 mph 4.8 kmh 7.0 mph11.3 kmh 30.44 in1030.8 mb 0.00 in0.0 mm 0.00 in0.0 mm 0.00 in0.0 mm
02:00 PM 14.6°F-9.7°C 1.8°F-16.8°C 56% 2.0 mph NNE3.2 kmh NNE 5.0 mph8.0 kmh 30.45 in1031.2 mb 0.00 in0.0 mm 0.00 in0.0 mm 0.00 in0.0 mm
02:05 PM 14.9°F-9.5°C 2.1°F-16.6°C 56% 1.0 mph NNW1.6 kmh NNW 5.0 mph8.0 kmh 30.45 in1031.2 mb 0.00 in0.0 mm 0.00 in0.0 mm 0.00 in0.0 mm
02:10 PM 15.1°F-9.4°C 2.3°F-16.5°C 56% 1.0 mph NNW1.6 kmh NNW 3.0 mph4.8 kmh 30.45 in1031.2 mb 0.00 in0.0 mm 0.00 in0.0 mm 0.00 in0.0 mm
02:15 PM 15.4°F-9.2°C 2.2°F-16.6°C 55% 1.0 mph NNW1.6 kmh NNW 3.0 mph4.8 kmh 30.45 in1031.2 mb 0.00 in0.0 mm 0.00 in0.0 mm 0.00 in0.0 mm
02:20 PM 15.6°F-9.1°C 2.3°F-16.5°C 55% 1.0 mph NNW1.6 kmh NNW 4.0 mph6.4 kmh 30.45 in1031.2 mb 0.00 in0.0 mm 0.00 in0.0 mm 0.00 in0.0 mm
02:25 PM 15.7°F-9.1°C 2.0°F-16.7°C 54% 2.0 mph NNW3.2 kmh NNW 4.0 mph6.4 kmh 30.45 in1031.2 mb 0.00 in0.0 mm 0.00 in0.0 mm 0.00 in0.0 mm
02:30 PM 16.1°F-8.8°C 2.4°F-16.4°C 54% 2.0 mph 3.2 kmh 5.0 mph8.0 kmh 30.45 in1031.2 mb 0.00 in0.0 mm 0.00 in0.0 mm 0.00 in0.0 mm
02:35 PM 16.2°F-8.8°C 2.1°F-16.6°C 53% 2.0 mph 3.2 kmh 4.0 mph6.4 kmh 30.45 in1031.2 mb 0.00 in0.0 mm 0.00 in0.0 mm 0.00 in0.0 mm
02:40 PM 16.4°F-8.7°C 2.3°F-16.5°C 53% 2.0 mph 3.2 kmh 4.0 mph6.4 kmh 30.45 in1031.2 mb 0.00 in0.0 mm 0.00 in0.0 mm 0.00 in0.0 mm
02:45 PM 16.5°F-8.6°C 2.0°F-16.7°C 52% 2.0 mph 3.2 kmh 5.0 mph8.0 kmh 30.45 in1031.2 mb 0.00 in0.0 mm 0.00 in0.0 mm 0.00 in0.0 mm
02:50 PM 16.7°F-8.5°C 2.6°F-16.3°C 53% 2.0 mph 3.2 kmh 7.0 mph11.3 kmh 30.45 in1031.2 mb 0.00 in0.0 mm 0.00 in0.0 mm 0.00 in0.0 mm
02:55 PM 17.0°F-8.3°C 2.4°F-16.4°C 52% 2.0 mph 3.2 kmh 5.0 mph8.0 kmh 30.45 in1031.2 mb 0.00 in0.0 mm 0.00 in0.0 mm 0.00 in0.0 mm
03:00 PM 17.2°F-8.2°C 2.6°F-16.3°C 52% 2.0 mph NNE3.2 kmh NNE 6.0 mph9.7 kmh 30.45 in1031.2 mb 0.00 in0.0 mm 0.00 in0.0 mm 0.00 in0.0 mm
03:05 PM 17.5°F-8.1°C 2.5°F-16.4°C 51% 2.0 mph NW3.2 kmh NW 5.0 mph8.0 kmh 30.45 in1031.2 mb 0.00 in0.0 mm 0.00 in0.0 mm 0.00 in0.0 mm
03:10 PM 17.8°F-7.9°C 2.8°F-16.2°C 51% 2.0 mph NW3.2 kmh NW 5.0 mph8.0 kmh 30.45 in1031.2 mb 0.00 in0.0 mm 0.00 in0.0 mm 0.00 in0.0 mm
03:15 PM 18.0°F-7.8°C 2.5°F-16.4°C 50% 1.0 mph NW1.6 kmh NW 5.0 mph8.0 kmh 30.45 in1031.2 mb 0.00 in0.0 mm 0.00 in0.0 mm 0.00 in0.0 mm
03:20 PM 18.3°F-7.6°C 2.8°F-16.2°C 50% 2.0 mph NW3.2 kmh NW 4.0 mph6.4 kmh 30.45 in1031.2 mb 0.00 in0.0 mm 0.00 in0.0 mm 0.00 in0.0 mm
03:25 PM 18.8°F-7.3°C 3.3°F-15.9°C 50% 1.0 mph NW1.6 kmh NW 3.0 mph4.8 kmh 30.45 in1031.2 mb 0.00 in0.0 mm 0.00 in0.0 mm 0.00 in0.0 mm
03:30 PM 19.1°F-7.2°C 3.1°F-16.1°C 49% 2.0 mph NW3.2 kmh NW 4.0 mph6.4 kmh 30.45 in1031.2 mb 0.00 in0.0 mm 0.00 in0.0 mm 0.00 in0.0 mm
03:35 PM 19.2°F-7.1°C 3.2°F-16.0°C 49% 1.0 mph NW1.6 kmh NW 4.0 mph6.4 kmh 30.45 in1031.2 mb 0.00 in0.0 mm 0.00 in0.0 mm 0.00 in0.0 mm
03:40 PM 19.2°F-7.1°C 2.8°F-16.2°C 48% 1.0 mph WNW1.6 kmh WNW 4.0 mph6.4 kmh 30.45 in1031.2 mb 0.00 in0.0 mm 0.00 in0.0 mm 0.00 in0.0 mm
03:45 PM 19.5°F-6.9°C 3.0°F-16.1°C 48% 1.0 mph WNW1.6 kmh WNW 3.0 mph4.8 kmh 30.44 in1030.8 mb 0.00 in0.0 mm 0.00 in0.0 mm 0.00 in0.0 mm
03:50 PM 19.9°F-6.7°C 3.4°F-15.9°C 48% Calm Calm 3.0 mph4.8 kmh 30.44 in1030.8 mb 0.00 in0.0 mm 0.00 in0.0 mm 0.00 in0.0 mm
03:55 PM 20.3°F-6.5°C 3.3°F-15.9°C 47% 2.0 mph WNW3.2 kmh WNW 6.0 mph9.7 kmh 30.44 in1030.8 mb 0.00 in0.0 mm 0.00 in0.0 mm 0.00 in0.0 mm
04:00 PM 20.6°F-6.3°C 4.1°F-15.5°C 48% 1.0 mph 1.6 kmh 5.0 mph8.0 kmh 30.43 in1030.5 mb 0.00 in0.0 mm 0.00 in0.0 mm 0.00 in0.0 mm
04:05 PM 21.0°F-6.1°C 3.5°F-15.8°C 46% 1.0 mph NW1.6 kmh NW 3.0 mph4.8 kmh 30.43 in1030.5 mb 0.00 in0.0 mm 0.00 in0.0 mm 0.00 in0.0 mm
04:10 PM 21.3°F-5.9°C 4.2°F-15.4°C 47% 2.0 mph WNW3.2 kmh WNW 5.0 mph8.0 kmh 30.43 in1030.5 mb 0.00 in0.0 mm 0.00 in0.0 mm 0.00 in0.0 mm
04:15 PM 21.6°F-5.8°C 4.5°F-15.3°C 47% 1.0 mph NW1.6 kmh NW 5.0 mph8.0 kmh 30.42 in1030.1 mb 0.00 in0.0 mm 0.00 in0.0 mm 0.00 in0.0 mm
04:20 PM 21.9°F-5.6°C 4.8°F-15.1°C 47% 1.0 mph NW1.6 kmh NW 4.0 mph6.4 kmh 30.42 in1030.1 mb 0.00 in0.0 mm 0.00 in0.0 mm 0.00 in0.0 mm
04:25 PM 21.9°F-5.6°C 5.3°F-14.8°C 48% 1.0 mph NW1.6 kmh NW 3.0 mph4.8 kmh 30.42 in1030.1 mb 0.00 in0.0 mm 0.00 in0.0 mm 0.00 in0.0 mm
04:30 PM 22.1°F-5.5°C 5.4°F-14.8°C 48% 1.0 mph NW1.6 kmh NW 4.0 mph6.4 kmh 30.41 in1029.8 mb 0.00 in0.0 mm 0.00 in0.0 mm 0.00 in0.0 mm
04:35 PM 22.1°F-5.5°C 5.0°F-15.0°C 47% 2.0 mph 3.2 kmh 6.0 mph9.7 kmh 30.41 in1029.8 mb 0.00 in0.0 mm 0.00 in0.0 mm 0.00 in0.0 mm
04:40 PM 22.2°F-5.4°C 5.5°F-14.7°C 48% 1.0 mph 1.6 kmh 7.0 mph11.3 kmh 30.41 in1029.8 mb 0.00 in0.0 mm 0.00 in0.0 mm 0.00 in0.0 mm
04:45 PM 22.4°F-5.3°C 5.7°F-14.6°C 48% 2.0 mph 3.2 kmh 6.0 mph9.7 kmh 30.40 in1029.5 mb 0.00 in0.0 mm 0.00 in0.0 mm 0.00 in0.0 mm
04:50 PM 22.7°F-5.2°C 6.4°F-14.2°C 49% 1.0 mph 1.6 kmh 4.0 mph6.4 kmh 30.40 in1029.5 mb 0.00 in0.0 mm 0.00 in0.0 mm 0.00 in0.0 mm
04:55 PM 23.0°F-5.0°C 6.7°F-14.1°C 49% 1.0 mph 1.6 kmh 4.0 mph6.4 kmh 30.40 in1029.5 mb 0.00 in0.0 mm 0.00 in0.0 mm 0.00 in0.0 mm
05:00 PM 23.5°F-4.7°C 6.7°F-14.1°C 48% 1.0 mph 1.6 kmh 4.0 mph6.4 kmh 30.39 in1029.1 mb 0.00 in0.0 mm 0.00 in0.0 mm 0.00 in0.0 mm
05:05 PM 23.6°F-4.7°C 5.9°F-14.5°C 46% Calm Calm 4.0 mph6.4 kmh 30.39 in1029.1 mb 0.00 in0.0 mm 0.00 in0.0 mm 0.00 in0.0 mm
05:10 PM 23.9°F-4.5°C 8.0°F-13.3°C 50% 3.0 mph 4.8 kmh 7.0 mph11.3 kmh 30.39 in1029.1 mb 0.00 in0.0 mm 0.00 in0.0 mm 0.00 in0.0 mm
05:15 PM 24.1°F-4.4°C 8.2°F-13.2°C 50% 3.0 mph E4.8 kmh E 6.0 mph9.7 kmh 30.39 in1029.1 mb 0.00 in0.0 mm 0.00 in0.0 mm 0.00 in0.0 mm
05:20 PM 23.9°F-4.5°C 8.4°F-13.1°C 51% 2.0 mph E3.2 kmh E 5.0 mph8.0 kmh 30.39 in1029.1 mb 0.00 in0.0 mm 0.00 in0.0 mm 0.00 in0.0 mm
05:25 PM 24.4°F-4.2°C 9.3°F-12.6°C 52% 1.0 mph E1.6 kmh E 4.0 mph6.4 kmh 30.39 in1029.1 mb 0.00 in0.0 mm 0.00 in0.0 mm 0.00 in0.0 mm
05:30 PM 24.8°F-4.0°C 8.4°F-13.1°C 49% 2.0 mph E3.2 kmh E 4.0 mph6.4 kmh 30.38 in1028.8 mb 0.00 in0.0 mm 0.00 in0.0 mm 0.00 in0.0 mm
05:35 PM 25.0°F-3.9°C 8.6°F-13.0°C 49% 1.0 mph E1.6 kmh E 4.0 mph6.4 kmh 30.38 in1028.8 mb 0.00 in0.0 mm 0.00 in0.0 mm 0.00 in0.0 mm
05:40 PM 25.3°F-3.7°C 8.8°F-12.9°C 49% 2.0 mph WNW3.2 kmh WNW 5.0 mph8.0 kmh 30.38 in1028.8 mb 0.00 in0.0 mm 0.00 in0.0 mm 0.00 in0.0 mm
05:45 PM 25.6°F-3.6°C 8.7°F-12.9°C 48% Calm Calm 3.0 mph4.8 kmh 30.38 in1028.8 mb 0.00 in0.0 mm 0.00 in0.0 mm 0.00 in0.0 mm
05:50 PM 26.0°F-3.3°C 9.5°F-12.5°C 49% Calm Calm 3.0 mph4.8 kmh 30.38 in1028.8 mb 0.00 in0.0 mm 0.00 in0.0 mm 0.00 in0.0 mm
05:55 PM 26.3°F-3.2°C 8.8°F-12.9°C 47% 1.0 mph WNW1.6 kmh WNW 3.0 mph4.8 kmh 30.38 in1028.8 mb 0.00 in0.0 mm 0.00 in0.0 mm 0.00 in0.0 mm
06:00 PM 26.4°F-3.1°C 9.4°F-12.6°C 48% 2.0 mph 3.2 kmh 6.0 mph9.7 kmh 30.37 in1028.4 mb 0.00 in0.0 mm 0.00 in0.0 mm 0.00 in0.0 mm
06:05 PM 26.0°F-3.3°C 8.6°F-13.0°C 47% 2.0 mph E3.2 kmh E 7.0 mph11.3 kmh 30.37 in1028.4 mb 0.00 in0.0 mm 0.00 in0.0 mm 0.00 in0.0 mm
06:10 PM 26.1°F-3.3°C 9.1°F-12.7°C 48% 2.0 mph E3.2 kmh E 4.0 mph6.4 kmh 30.37 in1028.4 mb 0.00 in0.0 mm 0.00 in0.0 mm 0.00 in0.0 mm
06:15 PM 26.4°F-3.1°C 8.9°F-12.8°C 47% 1.0 mph NNE1.6 kmh NNE 3.0 mph4.8 kmh 30.37 in1028.4 mb 0.00 in0.0 mm 0.00 in0.0 mm 0.00 in0.0 mm
06:20 PM 26.9°F-2.8°C 8.9°F-12.8°C 46% Calm Calm 3.0 mph4.8 kmh 30.37 in1028.4 mb 0.00 in0.0 mm 0.00 in0.0 mm 0.00 in0.0 mm
06:25 PM 27.0°F-2.8°C 9.0°F-12.8°C 46% 2.0 mph NNE3.2 kmh NNE 6.0 mph9.7 kmh 30.37 in1028.4 mb 0.00 in0.0 mm 0.00 in0.0 mm 0.00 in0.0 mm
06:30 PM 26.9°F-2.8°C 8.4°F-13.1°C 45% 3.0 mph NE4.8 kmh NE 5.0 mph8.0 kmh 30.36 in1028.1 mb 0.00 in0.0 mm 0.00 in0.0 mm 0.00 in0.0 mm
06:35 PM 26.4°F-3.1°C 8.5°F-13.1°C 46% 2.0 mph 3.2 kmh 7.0 mph11.3 kmh 30.36 in1028.1 mb 0.00 in0.0 mm 0.00 in0.0 mm 0.00 in0.0 mm
06:40 PM 26.6°F-3.0°C 8.6°F-13.0°C 46% Calm Calm 1.0 mph1.6 kmh 30.36 in1028.1 mb 0.00 in0.0 mm 0.00 in0.0 mm 0.00 in0.0 mm
06:45 PM 26.9°F-2.8°C 8.9°F-12.8°C 46% Calm Calm 3.0 mph4.8 kmh 30.36 in1028.1 mb 0.00 in0.0 mm 0.00 in0.0 mm 0.00 in0.0 mm
06:50 PM 27.2°F-2.7°C 9.2°F-12.7°C 46% 2.0 mph 3.2 kmh 7.0 mph11.3 kmh 30.36 in1028.1 mb 0.00 in0.0 mm 0.00 in0.0 mm 0.00 in0.0 mm
06:55 PM 27.0°F-2.8°C 9.0°F-12.8°C 46% 1.0 mph NNE1.6 kmh NNE 6.0 mph9.7 kmh 30.36 in1028.1 mb 0.00 in0.0 mm 0.00 in0.0 mm 0.00 in0.0 mm
07:00 PM 26.9°F-2.8°C 8.9°F-12.8°C 46% 2.0 mph NNE3.2 kmh NNE 4.0 mph6.4 kmh 30.36 in1028.1 mb 0.00 in0.0 mm 0.00 in0.0 mm 0.00 in0.0 mm
07:05 PM 26.7°F-2.9°C 8.7°F-12.9°C 46% 1.0 mph ENE1.6 kmh ENE 6.0 mph9.7 kmh 30.36 in1028.1 mb 0.00 in0.0 mm 0.00 in0.0 mm 0.00 in0.0 mm
07:10 PM 26.9°F-2.8°C 8.9°F-12.8°C 46% Calm Calm 2.0 mph3.2 kmh 30.36 in1028.1 mb 0.00 in0.0 mm 0.00 in0.0 mm 0.00 in0.0 mm
07:15 PM 27.0°F-2.8°C 8.5°F-13.1°C 45% 3.0 mph ENE4.8 kmh ENE 6.0 mph9.7 kmh 30.36 in1028.1 mb 0.00 in0.0 mm 0.00 in0.0 mm 0.00 in0.0 mm
07:20 PM 26.9°F-2.8°C 8.9°F-12.8°C 46% 1.0 mph SE1.6 kmh SE 5.0 mph8.0 kmh 30.36 in1028.1 mb 0.00 in0.0 mm 0.00 in0.0 mm 0.00 in0.0 mm
07:25 PM 26.9°F-2.8°C 8.9°F-12.8°C 46% 2.0 mph SE3.2 kmh SE 6.0 mph9.7 kmh 30.36 in1028.1 mb 0.00 in0.0 mm 0.00 in0.0 mm 0.00 in0.0 mm
07:30 PM 26.9°F-2.8°C 8.4°F-13.1°C 45% 2.0 mph E3.2 kmh E 5.0 mph8.0 kmh 30.37 in1028.4 mb 0.00 in0.0 mm 0.00 in0.0 mm 0.00 in0.0 mm
07:35 PM 26.6°F-3.0°C 8.2°F-13.2°C 45% 1.0 mph E1.6 kmh E 4.0 mph6.4 kmh 30.37 in1028.4 mb 0.00 in0.0 mm 0.00 in0.0 mm 0.00 in0.0 mm
07:40 PM 26.4°F-3.1°C 8.0°F-13.3°C 45% 2.0 mph NNW3.2 kmh NNW 5.0 mph8.0 kmh 30.37 in1028.4 mb 0.00 in0.0 mm 0.00 in0.0 mm 0.00 in0.0 mm
07:45 PM 26.4°F-3.1°C 8.9°F-12.8°C 47% 1.0 mph NNW1.6 kmh NNW 5.0 mph8.0 kmh 30.36 in1028.1 mb 0.00 in0.0 mm 0.00 in0.0 mm 0.00 in0.0 mm
07:50 PM 26.4°F-3.1°C 8.5°F-13.1°C 46% 1.0 mph NNE1.6 kmh NNE 4.0 mph6.4 kmh 30.36 in1028.1 mb 0.00 in0.0 mm 0.00 in0.0 mm 0.00 in0.0 mm
07:55 PM 26.4°F-3.1°C 8.5°F-13.1°C 46% 1.0 mph NE1.6 kmh NE 4.0 mph6.4 kmh 30.36 in1028.1 mb 0.00 in0.0 mm 0.00 in0.0 mm 0.00 in0.0 mm
08:00 PM 26.3°F-3.2°C 8.4°F-13.1°C 46% 1.0 mph NE1.6 kmh NE 3.0 mph4.8 kmh 30.36 in1028.1 mb 0.00 in0.0 mm 0.00 in0.0 mm 0.00 in0.0 mm
08:05 PM 26.3°F-3.2°C 8.4°F-13.1°C 46% 1.0 mph NE1.6 kmh NE 4.0 mph6.4 kmh 30.36 in1028.1 mb 0.00 in0.0 mm 0.00 in0.0 mm 0.00 in0.0 mm
08:10 PM 26.3°F-3.2°C 8.4°F-13.1°C 46% 1.0 mph SE1.6 kmh SE 6.0 mph9.7 kmh 30.36 in1028.1 mb 0.00 in0.0 mm 0.00 in0.0 mm 0.00 in0.0 mm
08:15 PM 26.3°F-3.2°C 8.8°F-12.9°C 47% 1.0 mph ESE1.6 kmh ESE 5.0 mph8.0 kmh 30.36 in1028.1 mb 0.00 in0.0 mm 0.00 in0.0 mm 0.00 in0.0 mm
08:20 PM 26.3°F-3.2°C 8.8°F-12.9°C 47% 2.0 mph ESE3.2 kmh ESE 5.0 mph8.0 kmh 30.36 in1028.1 mb 0.00 in0.0 mm 0.00 in0.0 mm 0.00 in0.0 mm
08:25 PM 26.3°F-3.2°C 8.8°F-12.9°C 47% Calm Calm 3.0 mph4.8 kmh 30.36 in1028.1 mb 0.00 in0.0 mm 0.00 in0.0 mm 0.00 in0.0 mm
08:30 PM 26.4°F-3.1°C 8.5°F-13.1°C 46% 2.0 mph ESE3.2 kmh ESE 4.0 mph6.4 kmh 30.35 in1027.8 mb 0.00 in0.0 mm 0.00 in0.0 mm 0.00 in0.0 mm
08:35 PM 26.3°F-3.2°C 9.3°F-12.6°C 48% 1.0 mph ESE1.6 kmh ESE 4.0 mph6.4 kmh 30.35 in1027.8 mb 0.00 in0.0 mm 0.00 in0.0 mm 0.00 in0.0 mm
08:40 PM 26.3°F-3.2°C 8.4°F-13.1°C 46% 1.0 mph ESE1.6 kmh ESE 3.0 mph4.8 kmh 30.35 in1027.8 mb 0.00 in0.0 mm 0.00 in0.0 mm 0.00 in0.0 mm
08:45 PM 26.1°F-3.3°C 8.7°F-12.9°C 47% 2.0 mph E3.2 kmh E 3.0 mph4.8 kmh 30.35 in1027.8 mb 0.00 in0.0 mm 0.00 in0.0 mm 0.00 in0.0 mm
08:50 PM 26.1°F-3.3°C 8.2°F-13.2°C 46% 2.0 mph ENE3.2 kmh ENE 4.0 mph6.4 kmh 30.35 in1027.8 mb 0.00 in0.0 mm 0.00 in0.0 mm 0.00 in0.0 mm
08:55 PM 26.0°F-3.3°C 8.6°F-13.0°C 47% 1.0 mph ENE1.6 kmh ENE 3.0 mph4.8 kmh 30.35 in1027.8 mb 0.00 in0.0 mm 0.00 in0.0 mm 0.00 in0.0 mm
09:00 PM 26.0°F-3.3°C 8.6°F-13.0°C 47% 1.0 mph ENE1.6 kmh ENE 2.0 mph3.2 kmh 30.34 in1027.4 mb 0.00 in0.0 mm 0.00 in0.0 mm 0.00 in0.0 mm
09:05 PM 25.8°F-3.4°C 8.8°F-12.9°C 48% 1.0 mph ENE1.6 kmh ENE 2.0 mph3.2 kmh 30.34 in1027.4 mb 0.00 in0.0 mm 0.00 in0.0 mm 0.00 in0.0 mm
09:10 PM 25.8°F-3.4°C 8.8°F-12.9°C 48% 1.0 mph ENE1.6 kmh ENE 2.0 mph3.2 kmh 30.34 in1027.4 mb 0.00 in0.0 mm 0.00 in0.0 mm 0.00 in0.0 mm
09:15 PM 25.7°F-3.5°C 8.8°F-12.9°C 48% 1.0 mph ENE1.6 kmh ENE 2.0 mph3.2 kmh 30.34 in1027.4 mb 0.00 in0.0 mm 0.00 in0.0 mm 0.00 in0.0 mm
09:20 PM 25.6°F-3.6°C 9.1°F-12.7°C 49% 1.0 mph ENE1.6 kmh ENE 2.0 mph3.2 kmh 30.34 in1027.4 mb 0.00 in0.0 mm 0.00 in0.0 mm 0.00 in0.0 mm
09:25 PM 25.4°F-3.7°C 9.4°F-12.6°C 50% Calm Calm 3.0 mph4.8 kmh 30.34 in1027.4 mb 0.00 in0.0 mm 0.00 in0.0 mm 0.00 in0.0 mm
09:30 PM 25.3°F-3.7°C 9.3°F-12.6°C 50% 1.0 mph ENE1.6 kmh ENE 3.0 mph4.8 kmh 30.34 in1027.4 mb 0.00 in0.0 mm 0.00 in0.0 mm 0.00 in0.0 mm
09:35 PM 25.1°F-3.8°C 9.1°F-12.7°C 50% Calm Calm 2.0 mph3.2 kmh 30.34 in1027.4 mb 0.00 in0.0 mm 0.00 in0.0 mm 0.00 in0.0 mm
09:40 PM 24.8°F-4.0°C 8.8°F-12.9°C 50% Calm Calm 2.0 mph3.2 kmh 30.34 in1027.4 mb 0.00 in0.0 mm 0.00 in0.0 mm 0.00 in0.0 mm
09:45 PM 24.7°F-4.1°C 8.7°F-12.9°C 50% Calm Calm 2.0 mph3.2 kmh 30.34 in1027.4 mb 0.00 in0.0 mm 0.00 in0.0 mm 0.00 in0.0 mm
09:50 PM 24.4°F-4.2°C 9.3°F-12.6°C 52% Calm Calm 4.0 mph6.4 kmh 30.34 in1027.4 mb 0.00 in0.0 mm 0.00 in0.0 mm 0.00 in0.0 mm
09:55 PM 24.2°F-4.3°C 9.6°F-12.4°C 53% Calm Calm 1.0 mph1.6 kmh 30.34 in1027.4 mb 0.00 in0.0 mm 0.00 in0.0 mm 0.00 in0.0 mm
10:00 PM 23.8°F-4.6°C 9.6°F-12.4°C 54% Calm Calm -- 30.34 in1027.4 mb 0.00 in0.0 mm 0.00 in0.0 mm 0.00 in0.0 mm
10:05 PM 23.5°F-4.7°C 9.7°F-12.4°C 55% Calm Calm -- 30.34 in1027.4 mb 0.00 in0.0 mm 0.00 in0.0 mm 0.00 in0.0 mm
10:10 PM 23.2°F-4.9°C 9.5°F-12.5°C 55% Calm Calm 1.0 mph1.6 kmh 30.34 in1027.4 mb 0.00 in0.0 mm 0.00 in0.0 mm 0.00 in0.0 mm
10:15 PM 23.0°F-5.0°C 9.3°F-12.6°C 55% Calm Calm -- 30.34 in1027.4 mb 0.00 in0.0 mm 0.00 in0.0 mm 0.00 in0.0 mm
10:20 PM 22.9°F-5.1°C 9.6°F-12.4°C 56% Calm Calm -- 30.34 in1027.4 mb 0.00 in0.0 mm 0.00 in0.0 mm 0.00 in0.0 mm
10:25 PM 22.5°F-5.3°C 9.2°F-12.7°C 56% Calm Calm -- 30.34 in1027.4 mb 0.00 in0.0 mm 0.00 in0.0 mm 0.00 in0.0 mm
10:30 PM 22.2°F-5.4°C 8.9°F-12.8°C 56% Calm Calm -- 30.34 in1027.4 mb 0.00 in0.0 mm 0.00 in0.0 mm 0.00 in0.0 mm
10:35 PM 21.9°F-5.6°C 9.0°F-12.8°C 57% Calm Calm -- 30.34 in1027.4 mb 0.00 in0.0 mm 0.00 in0.0 mm 0.00 in0.0 mm
10:40 PM 21.4°F-5.9°C 8.9°F-12.8°C 58% Calm Calm 2.0 mph3.2 kmh 30.34 in1027.4 mb 0.00 in0.0 mm 0.00 in0.0 mm 0.00 in0.0 mm
10:45 PM 21.1°F-6.1°C 9.0°F-12.8°C 59% Calm Calm -- 30.34 in1027.4 mb 0.00 in0.0 mm 0.00 in0.0 mm 0.00 in0.0 mm
10:50 PM 20.6°F-6.3°C 8.6°F-13.0°C 59% Calm Calm 1.0 mph1.6 kmh 30.34 in1027.4 mb 0.00 in0.0 mm 0.00 in0.0 mm 0.00 in0.0 mm
10:55 PM 20.3°F-6.5°C 8.7°F-12.9°C 60% 1.0 mph NNE1.6 kmh NNE 2.0 mph3.2 kmh 30.34 in1027.4 mb 0.00 in0.0 mm 0.00 in0.0 mm 0.00 in0.0 mm
11:00 PM 20.2°F-6.6°C 9.3°F-12.6°C 62% 2.0 mph ENE3.2 kmh ENE 6.0 mph9.7 kmh 30.35 in1027.8 mb 0.00 in0.0 mm 0.00 in0.0 mm 0.00 in0.0 mm
11:05 PM 20.2°F-6.6°C 8.9°F-12.8°C 61% Calm Calm 2.0 mph3.2 kmh 30.35 in1027.8 mb 0.00 in0.0 mm 0.00 in0.0 mm 0.00 in0.0 mm
11:10 PM 20.2°F-6.6°C 8.9°F-12.8°C 61% Calm Calm 2.0 mph3.2 kmh 30.35 in1027.8 mb 0.00 in0.0 mm 0.00 in0.0 mm 0.00 in0.0 mm
11:15 PM 20.2°F-6.6°C 8.9°F-12.8°C 61% Calm Calm 3.0 mph4.8 kmh 30.36 in1028.1 mb 0.00 in0.0 mm 0.00 in0.0 mm 0.00 in0.0 mm
11:20 PM 20.2°F-6.6°C 8.9°F-12.8°C 61% Calm Calm -- 30.36 in1028.1 mb 0.00 in0.0 mm 0.00 in0.0 mm 0.00 in0.0 mm
11:25 PM 20.0°F-6.7°C 9.1°F-12.7°C 62% Calm Calm -- 30.36 in1028.1 mb 0.00 in0.0 mm 0.00 in0.0 mm 0.00 in0.0 mm
11:30 PM 19.7°F-6.8°C 8.8°F-12.9°C 62% Calm Calm -- 30.36 in1028.1 mb 0.00 in0.0 mm 0.00 in0.0 mm 0.00 in0.0 mm
11:35 PM 19.5°F-6.9°C 9.0°F-12.8°C 63% Calm Calm 1.0 mph1.6 kmh 30.36 in1028.1 mb 0.00 in0.0 mm 0.00 in0.0 mm 0.00 in0.0 mm
11:40 PM 19.2°F-7.1°C 9.0°F-12.8°C 64% Calm Calm 1.0 mph1.6 kmh 30.36 in1028.1 mb 0.00 in0.0 mm 0.00 in0.0 mm 0.00 in0.0 mm
11:45 PM 18.9°F-7.3°C 8.8°F-12.9°C 64% Calm Calm -- 30.36 in1028.1 mb 0.00 in0.0 mm 0.00 in0.0 mm 0.00 in0.0 mm
11:50 PM 18.6°F-7.4°C 8.5°F-13.1°C 64% Calm Calm -- 30.36 in1028.1 mb 0.00 in0.0 mm 0.00 in0.0 mm 0.00 in0.0 mm
11:55 PM 18.4°F-7.6°C 8.6°F-13.0°C 65% Calm Calm -- 30.36 in1028.1 mb 0.00 in0.0 mm 0.00 in0.0 mm 0.00 in0.0 mm